createdAt,value
2022-09-25T00:01:14.787Z,10.40
2022-09-25T00:03:41.870Z,10.50
2022-09-25T00:06:20.704Z,10.50
2022-09-25T00:08:47.818Z,10.50
2022-09-25T00:11:20.492Z,10.40
2022-09-25T00:13:48.372Z,10.50
2022-09-25T00:16:18.454Z,10.40
2022-09-25T00:19:21.257Z,10.50
2022-09-25T00:21:52.288Z,10.50
2022-09-25T00:24:19.719Z,10.40
2022-09-25T00:26:46.663Z,10.30
2022-09-25T00:29:18.784Z,10.30
2022-09-25T00:31:45.776Z,10.30
2022-09-25T00:34:13.113Z,10.40
2022-09-25T00:36:40.169Z,10.40
2022-09-25T00:39:07.458Z,10.40
2022-09-25T00:41:34.816Z,10.40
2022-09-25T00:44:04.071Z,10.40
2022-09-25T00:46:40.811Z,10.40
2022-09-25T00:49:12.992Z,10.40
2022-09-25T00:52:10.134Z,10.50
2022-09-25T00:54:42.358Z,10.40
2022-09-25T00:57:14.925Z,10.40
2022-09-25T00:59:46.006Z,10.40
2022-09-25T01:02:25.196Z,10.40
2022-09-25T01:04:52.667Z,10.40
2022-09-25T01:07:20.317Z,10.40
2022-09-25T01:09:47.518Z,10.40
2022-09-25T01:12:14.550Z,10.30
2022-09-25T01:14:41.719Z,10.30
2022-09-25T01:17:34.940Z,10.20
2022-09-25T01:20:17.018Z,10.30
2022-09-25T01:23:13.107Z,10.30
2022-09-25T01:26:01.412Z,10.30
2022-09-25T01:28:49.503Z,10.20
2022-09-25T01:31:25.087Z,10.20
2022-09-25T01:33:59.864Z,10.20
2022-09-25T01:36:38.023Z,10.30
2022-09-25T01:39:28.080Z,10.30
2022-09-25T01:42:00.880Z,10.30
2022-09-25T01:44:34.919Z,10.30
2022-09-25T01:47:22.374Z,10.30
2022-09-25T01:50:02.402Z,10.30
2022-09-25T01:52:39.695Z,10.30
2022-09-25T01:55:30.518Z,10.30
2022-09-25T01:58:21.128Z,10.30
2022-09-25T02:00:55.569Z,10.30
2022-09-25T02:03:47.515Z,10.30
2022-09-25T02:06:18.085Z,10.20
2022-09-25T02:09:08.121Z,10.20
2022-09-25T02:11:43.034Z,10.20
2022-09-25T02:14:19.049Z,10.20
2022-09-25T02:16:48.618Z,10.20
2022-09-25T02:19:36.110Z,10.30
2022-09-25T02:22:12.932Z,10.30
2022-09-25T02:24:58.937Z,10.30
2022-09-25T02:27:30.941Z,10.40
2022-09-25T02:30:01.644Z,10.40
2022-09-25T02:32:33.001Z,10.40
2022-09-25T02:35:00.535Z,10.40
2022-09-25T02:37:28.062Z,10.30
2022-09-25T02:39:59.126Z,10.30
2022-09-25T02:42:50.463Z,10.40
2022-09-25T02:45:20.131Z,10.40
2022-09-25T02:48:08.647Z,10.50
2022-09-25T02:51:28.590Z,10.50
2022-09-25T02:54:12.834Z,10.60
2022-09-25T02:56:53.806Z,10.50
2022-09-25T02:59:30.743Z,10.50
2022-09-25T03:01:59.050Z,10.50
2022-09-25T03:04:29.500Z,10.50
2022-09-25T03:06:57.534Z,10.60
2022-09-25T03:09:25.816Z,10.60
2022-09-25T03:11:53.182Z,10.60
2022-09-25T03:14:20.448Z,10.60
2022-09-25T03:16:56.735Z,10.60
2022-09-25T03:19:28.072Z,10.70
2022-09-25T03:21:55.679Z,10.70
2022-09-25T03:24:22.747Z,10.70
2022-09-25T03:26:49.967Z,10.70
2022-09-25T03:29:17.462Z,10.70
2022-09-25T03:31:45.720Z,10.70
2022-09-25T03:34:15.082Z,10.80
2022-09-25T03:36:43.027Z,10.80
2022-09-25T03:39:15.488Z,10.80
2022-09-25T03:41:44.090Z,10.80
2022-09-25T03:44:11.592Z,10.80
2022-09-25T03:46:38.830Z,10.80
2022-09-25T03:49:05.915Z,10.80
2022-09-25T03:51:33.946Z,10.80
2022-09-25T03:54:01.319Z,10.90
2022-09-25T03:56:29.946Z,10.90
2022-09-25T03:58:58.016Z,10.90
2022-09-25T04:01:27.050Z,10.90
2022-09-25T04:03:54.552Z,10.90
2022-09-25T04:06:24.602Z,10.90
2022-09-25T04:08:52.185Z,10.90
2022-09-25T04:11:21.106Z,10.90
2022-09-25T04:13:48.462Z,10.90
2022-09-25T04:16:17.234Z,10.90
2022-09-25T04:18:44.748Z,11.00
2022-09-25T04:21:13.690Z,11.00
2022-09-25T04:23:41.530Z,11.00
2022-09-25T04:26:09.284Z,11.00
2022-09-25T04:28:36.816Z,11.00
2022-09-25T04:31:04.425Z,11.00
2022-09-25T04:33:57.987Z,11.00
2022-09-25T04:36:25.059Z,11.00
2022-09-25T04:38:52.192Z,11.00
2022-09-25T04:41:20.235Z,11.00
2022-09-25T04:43:47.944Z,11.00
2022-09-25T04:46:21.450Z,11.00
2022-09-25T04:48:49.244Z,11.10
2022-09-25T04:51:16.220Z,11.00
2022-09-25T04:53:43.720Z,11.10
2022-09-25T04:56:15.505Z,11.00
2022-09-25T04:58:49.384Z,11.00
2022-09-25T05:01:18.333Z,11.10
2022-09-25T05:03:53.863Z,11.10
2022-09-25T05:06:22.612Z,11.10
2022-09-25T05:08:50.250Z,11.10
2022-09-25T05:11:17.284Z,11.10
2022-09-25T05:13:47.488Z,11.10
2022-09-25T05:16:14.619Z,11.20
2022-09-25T05:18:41.700Z,11.20
2022-09-25T05:21:08.796Z,11.20
2022-09-25T05:23:35.914Z,11.20
2022-09-25T05:26:03.144Z,11.20
2022-09-25T05:28:31.730Z,11.20
2022-09-25T05:31:06.308Z,11.20
2022-09-25T05:33:34.407Z,11.20
2022-09-25T05:36:06.445Z,11.30
2022-09-25T05:38:34.263Z,11.30
2022-09-25T05:41:05.158Z,11.30
2022-09-25T05:43:33.499Z,11.30
2022-09-25T05:46:01.143Z,11.30
2022-09-25T05:48:28.285Z,11.30
2022-09-25T05:50:56.764Z,11.30
2022-09-25T05:53:24.610Z,11.30
2022-09-25T05:55:58.318Z,11.30
2022-09-25T05:58:26.102Z,11.30
2022-09-25T06:00:55.072Z,11.30
2022-09-25T06:03:22.503Z,11.30
2022-09-25T06:05:49.719Z,11.30
2022-09-25T06:08:16.980Z,11.30
2022-09-25T06:10:43.966Z,11.40
2022-09-25T06:13:10.970Z,11.40
2022-09-25T06:15:42.053Z,11.40
2022-09-25T06:18:10.162Z,11.40
2022-09-25T06:20:37.411Z,11.40
2022-09-25T06:23:04.465Z,11.40
2022-09-25T06:25:36.574Z,11.40
2022-09-25T06:28:04.542Z,11.40
2022-09-25T06:30:34.575Z,11.40
2022-09-25T06:33:04.417Z,11.50
2022-09-25T06:35:31.732Z,11.50
2022-09-25T06:38:00.403Z,11.50
2022-09-25T06:40:29.558Z,11.60
2022-09-25T06:43:01.250Z,11.60
2022-09-25T06:45:29.259Z,11.60
2022-09-25T06:48:14.078Z,11.70
2022-09-25T06:50:51.181Z,11.70
2022-09-25T06:53:20.540Z,11.70
2022-09-25T06:55:48.332Z,11.70
2022-09-25T06:58:20.988Z,11.70
2022-09-25T07:00:52.641Z,11.70
2022-09-25T07:03:38.531Z,11.70
2022-09-25T07:06:07.602Z,11.70
2022-09-25T07:08:35.063Z,11.80
2022-09-25T07:11:02.243Z,11.80
2022-09-25T07:13:31.630Z,11.80
2022-09-25T07:16:04.394Z,11.80
2022-09-25T07:18:32.472Z,11.80
2022-09-25T07:21:05.003Z,11.80
2022-09-25T07:23:33.672Z,11.90
2022-09-25T07:26:15.910Z,11.90
2022-09-25T07:28:44.067Z,11.90
2022-09-25T07:31:17.374Z,11.90
2022-09-25T07:33:45.034Z,12.00
2022-09-25T07:36:12.829Z,12.00
2022-09-25T07:38:40.624Z,12.00
2022-09-25T07:41:11.274Z,12.00
2022-09-25T07:43:38.853Z,12.10
2022-09-25T07:46:06.671Z,12.10
2022-09-25T07:48:33.989Z,12.20
2022-09-25T07:51:06.111Z,12.20
2022-09-25T07:53:33.214Z,12.20
2022-09-25T07:56:06.222Z,12.10
2022-09-25T07:58:35.302Z,12.20
2022-09-25T08:01:04.801Z,12.20
2022-09-25T08:03:32.550Z,12.20
2022-09-25T08:06:01.701Z,12.10
2022-09-25T08:08:29.606Z,12.20
2022-09-25T08:11:02.765Z,12.10
2022-09-25T08:13:32.496Z,12.20
2022-09-25T08:16:02.910Z,12.10
2022-09-25T08:18:30.354Z,12.10
2022-09-25T08:21:04.881Z,12.10
2022-09-25T08:23:32.932Z,12.20
2022-09-25T08:26:00.523Z,12.20
2022-09-25T08:28:28.012Z,12.30
2022-09-25T08:30:55.982Z,12.30
2022-09-25T08:33:23.242Z,12.30
2022-09-25T08:36:01.993Z,12.20
2022-09-25T08:38:30.175Z,12.30
2022-09-25T08:41:03.836Z,12.30
2022-09-25T08:43:34.486Z,12.30
2022-09-25T08:46:23.892Z,12.20
2022-09-25T08:49:07.546Z,12.30
2022-09-25T08:51:40.605Z,12.20
2022-09-25T08:54:12.027Z,12.30
2022-09-25T08:56:40.353Z,12.40
2022-09-25T08:59:10.778Z,12.40
2022-09-25T09:01:48.039Z,12.30
2022-09-25T09:04:19.510Z,12.30
2022-09-25T09:07:14.713Z,12.30
2022-09-25T09:10:07.848Z,12.30
2022-09-25T09:12:41.043Z,12.40
2022-09-25T09:15:36.578Z,12.50
2022-09-25T09:18:15.536Z,12.50
2022-09-25T09:20:54.439Z,12.50
2022-09-25T09:23:55.264Z,12.50
2022-09-25T09:26:32.089Z,12.50
2022-09-25T09:29:34.684Z,12.50
2022-09-25T09:32:10.978Z,12.50
2022-09-25T09:35:07.115Z,12.50
2022-09-25T09:37:52.956Z,12.50
2022-09-25T09:40:38.546Z,12.60
2022-09-25T09:43:43.811Z,12.60
2022-09-25T09:46:38.387Z,12.70
2022-09-25T09:49:31.607Z,12.70
2022-09-25T09:52:12.236Z,12.90
2022-09-25T09:54:46.610Z,12.90
2022-09-25T09:57:28.280Z,12.90
2022-09-25T10:00:04.630Z,13.00
2022-09-25T10:02:46.806Z,13.00
2022-09-25T10:05:44.434Z,13.00
2022-09-25T10:08:14.058Z,13.10
2022-09-25T10:10:48.835Z,13.20
2022-09-25T10:13:34.560Z,13.30
2022-09-25T10:16:20.881Z,13.40
2022-09-25T10:19:20.263Z,13.40
2022-09-25T10:22:05.304Z,13.40
2022-09-25T10:24:55.115Z,13.40
2022-09-25T10:27:30.196Z,13.50
2022-09-25T10:30:02.069Z,13.60
2022-09-25T10:32:31.456Z,13.60
2022-09-25T10:35:01.355Z,13.70
2022-09-25T10:37:36.006Z,13.70
2022-09-25T10:40:22.813Z,13.80
2022-09-25T10:43:04.121Z,13.80
2022-09-25T10:45:34.167Z,13.90
2022-09-25T10:48:39.797Z,13.90
2022-09-25T10:51:08.935Z,14.00
2022-09-25T10:53:36.280Z,14.00
2022-09-25T10:56:09.498Z,14.10
2022-09-25T10:58:55.052Z,14.10
2022-09-25T11:01:37.475Z,14.10
2022-09-25T11:04:16.503Z,14.10
2022-09-25T11:06:48.024Z,14.10
2022-09-25T11:09:20.107Z,14.10
2022-09-25T11:11:49.485Z,14.20
2022-09-25T11:14:33.549Z,14.20
2022-09-25T11:17:06.030Z,14.30
2022-09-25T11:19:38.079Z,14.40
2022-09-25T11:22:20.138Z,14.50
2022-09-25T11:25:15.611Z,14.60
2022-09-25T11:27:46.934Z,14.60
2022-09-25T11:30:19.523Z,14.70
2022-09-25T11:32:57.813Z,14.80
2022-09-25T11:35:39.549Z,14.90
2022-09-25T11:38:13.014Z,15.00
2022-09-25T11:41:12.452Z,15.10
2022-09-25T11:44:05.978Z,15.00
2022-09-25T11:46:50.433Z,14.80
2022-09-25T11:49:24.202Z,14.80
2022-09-25T11:52:20.524Z,14.90
2022-09-25T11:55:08.966Z,14.80
2022-09-25T11:57:41.439Z,14.80
2022-09-25T12:00:23.946Z,14.70
2022-09-25T12:03:15.729Z,14.70
2022-09-25T12:06:11.996Z,14.80
2022-09-25T12:08:51.617Z,14.80
2022-09-25T12:11:41.588Z,14.80
2022-09-25T12:14:23.407Z,14.80
2022-09-25T12:16:50.394Z,14.80
2022-09-25T12:19:47.142Z,14.80
2022-09-25T12:22:39.595Z,14.90
2022-09-25T12:25:16.686Z,14.90
2022-09-25T12:27:54.968Z,14.90
2022-09-25T12:30:57.355Z,15.20
2022-09-25T12:33:38.881Z,15.30
2022-09-25T12:36:21.060Z,15.40
2022-09-25T12:38:55.527Z,15.40
2022-09-25T12:41:55.357Z,15.30
2022-09-25T12:44:47.339Z,15.30
2022-09-25T12:47:18.230Z,15.30
2022-09-25T12:50:13.532Z,15.50
2022-09-25T12:52:51.772Z,15.60
2022-09-25T12:55:32.049Z,15.60
2022-09-25T12:58:26.043Z,15.50
2022-09-25T13:00:59.901Z,15.50
2022-09-25T13:04:00.583Z,15.60
2022-09-25T13:06:33.763Z,15.50
2022-09-25T13:09:19.758Z,15.50
2022-09-25T13:12:10.860Z,15.60
2022-09-25T13:14:42.945Z,15.70
2022-09-25T13:17:16.008Z,15.80
2022-09-25T13:19:43.085Z,16.00
2022-09-25T13:22:20.866Z,16.00
2022-09-25T13:24:53.052Z,16.00
2022-09-25T13:27:23.170Z,16.00
2022-09-25T13:30:01.808Z,16.00
2022-09-25T13:32:34.947Z,16.10
2022-09-25T13:35:07.865Z,16.20
2022-09-25T13:37:38.204Z,16.10
2022-09-25T13:40:46.236Z,16.00
2022-09-25T13:43:36.198Z,16.00
2022-09-25T13:46:17.929Z,16.00
2022-09-25T13:48:45.072Z,16.00
2022-09-25T13:51:18.406Z,16.00
2022-09-25T13:54:24.355Z,16.10
2022-09-25T13:56:53.505Z,16.10
2022-09-25T13:59:24.447Z,15.90
2022-09-25T14:01:57.723Z,15.90
2022-09-25T14:04:32.242Z,15.70
2022-09-25T14:07:26.553Z,15.80
2022-09-25T14:09:57.361Z,16.00
2022-09-25T14:12:42.790Z,16.00
2022-09-25T14:15:26.961Z,16.10
2022-09-25T14:17:56.294Z,16.30
2022-09-25T14:20:27.771Z,16.40
2022-09-25T14:23:03.569Z,16.50
2022-09-25T14:25:33.951Z,16.50
2022-09-25T14:28:02.792Z,16.50
2022-09-25T14:30:31.377Z,16.50
2022-09-25T14:33:18.280Z,16.30
2022-09-25T14:36:11.578Z,16.20
2022-09-25T14:39:29.778Z,16.10
2022-09-25T14:42:04.465Z,16.30
2022-09-25T14:44:40.320Z,16.30
2022-09-25T14:47:13.361Z,16.10
2022-09-25T14:49:44.620Z,16.10
2022-09-25T14:52:16.373Z,16.10
2022-09-25T14:54:46.498Z,16.10
2022-09-25T14:57:20.876Z,16.10
2022-09-25T14:59:56.412Z,16.10
2022-09-25T15:02:40.355Z,16.20
2022-09-25T15:05:33.211Z,16.20
2022-09-25T15:08:02.419Z,16.10
2022-09-25T15:10:31.771Z,16.10
2022-09-25T15:13:18.361Z,16.00
2022-09-25T15:16:07.791Z,16.00
2022-09-25T15:18:39.231Z,16.00
2022-09-25T15:21:14.031Z,15.90
2022-09-25T15:23:46.115Z,15.80
2022-09-25T15:26:18.893Z,15.70
2022-09-25T15:28:47.786Z,15.70
2022-09-25T15:31:15.976Z,15.60
2022-09-25T15:34:01.951Z,15.60
2022-09-25T15:36:32.480Z,15.50
2022-09-25T15:39:17.838Z,15.50
2022-09-25T15:41:50.967Z,15.50
2022-09-25T15:44:27.412Z,15.60
2022-09-25T15:47:01.908Z,15.50
2022-09-25T15:49:40.859Z,15.50
2022-09-25T15:52:30.012Z,15.40
2022-09-25T15:55:04.273Z,15.40
2022-09-25T15:57:34.497Z,15.40
2022-09-25T16:00:37.995Z,15.40
2022-09-25T16:03:39.770Z,15.50
2022-09-25T16:06:13.129Z,15.40
2022-09-25T16:08:41.203Z,15.30
2022-09-25T16:11:20.743Z,15.40
2022-09-25T16:14:12.462Z,15.40
2022-09-25T16:16:47.609Z,15.30
2022-09-25T16:19:28.160Z,15.20
2022-09-25T16:22:01.669Z,15.20
2022-09-25T16:24:31.023Z,15.10
2022-09-25T16:27:04.538Z,15.20
2022-09-25T16:29:41.654Z,15.20
2022-09-25T16:32:19.357Z,15.20
2022-09-25T16:34:55.871Z,15.10
2022-09-25T16:37:31.935Z,15.10
2022-09-25T16:40:34.650Z,15.10
2022-09-25T16:43:02.584Z,15.00
2022-09-25T16:45:35.060Z,15.00
2022-09-25T16:48:38.681Z,15.00
2022-09-25T16:51:14.475Z,14.90
2022-09-25T16:53:42.222Z,14.90
2022-09-25T16:56:21.250Z,14.80
2022-09-25T16:58:49.845Z,14.80
2022-09-25T17:01:18.245Z,14.80
2022-09-25T17:03:53.009Z,14.80
2022-09-25T17:06:26.746Z,14.80
2022-09-25T17:09:00.350Z,14.90
2022-09-25T17:11:31.039Z,14.90
2022-09-25T17:13:58.837Z,14.90
2022-09-25T17:16:29.846Z,14.80
2022-09-25T17:19:01.330Z,14.80
2022-09-25T17:21:29.519Z,14.70
2022-09-25T17:23:57.188Z,14.70
2022-09-25T17:26:25.620Z,14.70
2022-09-25T17:28:59.836Z,14.60
2022-09-25T17:31:30.470Z,14.60
2022-09-25T17:33:58.097Z,14.60
2022-09-25T17:36:28.332Z,14.50
2022-09-25T17:38:56.826Z,14.60
2022-09-25T17:41:34.278Z,14.70
2022-09-25T17:44:05.799Z,14.60
2022-09-25T17:46:35.186Z,14.60
2022-09-25T17:49:03.574Z,14.60
2022-09-25T17:51:31.865Z,14.50
2022-09-25T17:54:03.208Z,14.50
2022-09-25T17:56:31.897Z,14.50
2022-09-25T17:59:03.983Z,14.50
2022-09-25T18:01:39.798Z,14.50
2022-09-25T18:04:23.042Z,14.50
2022-09-25T18:06:51.421Z,14.50
2022-09-25T18:09:21.749Z,14.50
2022-09-25T18:11:49.738Z,14.50
2022-09-25T18:14:20.660Z,14.40
2022-09-25T18:16:48.486Z,14.40
2022-09-25T18:19:37.446Z,14.40
2022-09-25T18:22:19.389Z,14.40
2022-09-25T18:24:48.949Z,14.50
2022-09-25T18:27:17.056Z,14.50
2022-09-25T18:29:46.513Z,14.60
2022-09-25T18:32:15.611Z,14.60
2022-09-25T18:34:43.740Z,14.50
2022-09-25T18:37:11.632Z,14.40
2022-09-25T18:39:42.337Z,14.40
2022-09-25T18:42:10.327Z,14.50
2022-09-25T18:44:42.564Z,14.50
2022-09-25T18:47:11.613Z,14.50
2022-09-25T18:49:43.015Z,14.50
2022-09-25T18:52:12.291Z,14.50
2022-09-25T18:54:42.746Z,14.40
2022-09-25T18:57:12.370Z,14.40
2022-09-25T18:59:43.423Z,14.50
2022-09-25T19:02:23.545Z,14.50
2022-09-25T19:04:56.579Z,14.50
2022-09-25T19:07:27.875Z,14.50
2022-09-25T19:09:58.818Z,14.50
2022-09-25T19:12:31.447Z,14.40
2022-09-25T19:15:07.979Z,14.40
2022-09-25T19:17:36.715Z,14.40
2022-09-25T19:20:04.479Z,14.40
2022-09-25T19:22:33.993Z,14.40
2022-09-25T19:25:10.825Z,14.40
2022-09-25T19:27:38.871Z,14.40
2022-09-25T19:30:10.540Z,14.40
2022-09-25T19:32:44.822Z,14.40
2022-09-25T19:35:13.525Z,14.40
2022-09-25T19:37:42.475Z,14.40
2022-09-25T19:40:32.938Z,14.40
2022-09-25T19:43:01.528Z,14.50
2022-09-25T19:45:32.084Z,14.40
2022-09-25T19:48:00.614Z,14.40
2022-09-25T19:50:30.602Z,14.40
2022-09-25T19:53:02.345Z,14.40
2022-09-25T19:55:30.182Z,14.30
2022-09-25T19:57:58.195Z,14.30
2022-09-25T20:00:26.250Z,14.30
2022-09-25T20:02:53.842Z,14.30
2022-09-25T20:05:21.972Z,14.30
2022-09-25T20:07:52.522Z,14.30
2022-09-25T20:10:24.831Z,14.20
2022-09-25T20:12:53.588Z,14.20
2022-09-25T20:15:24.846Z,14.20
2022-09-25T20:17:58.459Z,14.10
2022-09-25T20:20:28.962Z,14.10
2022-09-25T20:22:57.817Z,14.20
2022-09-25T20:25:28.422Z,14.20
2022-09-25T20:27:57.856Z,14.10
2022-09-25T20:30:29.706Z,14.10
2022-09-25T20:32:57.761Z,14.00
2022-09-25T20:35:33.871Z,14.00
2022-09-25T20:38:07.732Z,13.80
2022-09-25T20:40:40.829Z,13.90
2022-09-25T20:43:08.837Z,13.90
2022-09-25T20:45:47.884Z,14.00
2022-09-25T20:48:18.539Z,14.00
2022-09-25T20:50:52.562Z,14.00
2022-09-25T20:53:20.610Z,13.90
2022-09-25T20:55:48.478Z,14.00
2022-09-25T20:58:16.447Z,13.90
2022-09-25T21:00:44.347Z,13.90
2022-09-25T21:03:12.406Z,13.90
2022-09-25T21:05:41.418Z,13.90
2022-09-25T21:08:11.858Z,13.90
2022-09-25T21:10:40.802Z,13.80
2022-09-25T21:13:13.617Z,13.60
2022-09-25T21:15:41.529Z,13.70
2022-09-25T21:18:12.477Z,13.60
2022-09-25T21:20:40.788Z,13.60
2022-09-25T21:23:12.975Z,13.60
2022-09-25T21:25:43.202Z,13.50
2022-09-25T21:28:11.197Z,13.50
2022-09-25T21:30:39.734Z,13.40
2022-09-25T21:33:07.706Z,13.40
2022-09-25T21:35:35.538Z,13.40
2022-09-25T21:38:05.589Z,13.40
2022-09-25T21:40:33.457Z,13.50
2022-09-25T21:43:03.490Z,13.40
2022-09-25T21:45:32.271Z,13.50
2022-09-25T21:48:02.716Z,13.50
2022-09-25T21:50:30.813Z,13.50
2022-09-25T21:52:59.894Z,13.50
2022-09-25T21:55:34.997Z,13.40
2022-09-25T21:58:08.206Z,13.30
2022-09-25T22:00:55.437Z,13.30
2022-09-25T22:03:29.128Z,13.40
2022-09-25T22:06:07.895Z,13.40
2022-09-25T22:08:39.252Z,13.40
2022-09-25T22:11:16.862Z,13.20
2022-09-25T22:13:48.994Z,13.20
2022-09-25T22:16:29.548Z,13.20
2022-09-25T22:19:27.388Z,13.20
2022-09-25T22:21:56.984Z,13.20
2022-09-25T22:24:27.588Z,13.20
2022-09-25T22:26:56.508Z,13.20
2022-09-25T22:29:29.120Z,13.20
2022-09-25T22:32:02.561Z,13.10
2022-09-25T22:34:33.515Z,13.10
2022-09-25T22:37:06.731Z,13.20
2022-09-25T22:39:42.713Z,13.20
2022-09-25T22:42:20.594Z,13.20
2022-09-25T22:44:48.330Z,13.20
2022-09-25T22:47:16.099Z,13.20
2022-09-25T22:49:44.059Z,13.20
2022-09-25T22:52:14.537Z,13.20
2022-09-25T22:54:50.798Z,13.10
2022-09-25T22:57:26.146Z,13.00
2022-09-25T22:59:53.936Z,13.00
2022-09-25T23:02:27.395Z,13.00
2022-09-25T23:04:55.445Z,13.10
2022-09-25T23:07:23.675Z,13.10
2022-09-25T23:09:51.553Z,13.10
2022-09-25T23:12:19.588Z,13.10
2022-09-25T23:14:50.540Z,13.10
2022-09-25T23:17:21.295Z,13.00
2022-09-25T23:20:00.398Z,13.00
2022-09-25T23:22:44.561Z,13.00
2022-09-25T23:25:16.100Z,13.00
2022-09-25T23:27:46.337Z,13.00
2022-09-25T23:30:14.453Z,13.00
2022-09-25T23:32:44.816Z,13.00
2022-09-25T23:35:12.797Z,13.00
2022-09-25T23:37:40.659Z,13.00
2022-09-25T23:40:15.667Z,12.90
2022-09-25T23:42:55.077Z,12.90
2022-09-25T23:45:22.950Z,12.90
2022-09-25T23:47:50.671Z,12.90
2022-09-25T23:50:18.400Z,12.90
2022-09-25T23:52:54.876Z,12.90
2022-09-25T23:55:22.462Z,12.80
2022-09-25T23:57:50.336Z,12.80
